• Join FlightAware (Why Join?)
  • Login
  • US Flag 
08:10PM EST


 

Airport Tracker/Info


-or-


 

Live Flight TrackerFlight Track Log ✈ EJA951 ✈ 07-Nov-2013 ✈ KAGC - KPHL

Flight Track Log - Related Links

Times and Time Zones

All times are in EST time to prevent confusion due to time zone crossing. See the EJA951 flight status page for this flight to view local times or setup timezone preferences in your user account.

Time Position Orientation Groundspeed Altitude Reporting Facility
EST Latitude Longitude Course Direction KTS MPH feet Rate Location/Type
08:44PM 40.4042 -79.9258 92° East 233 268 3,200  Level Cleveland Center
08:45PM 40.4208 -79.8436 75° East 231 266 6,100 3,060 Climbing Cleveland Center
08:46PM 40.4406 -79.7419 76° East 282 325 9,600 2,700 Climbing Cleveland Center
08:47PM 40.4650 -79.6258 74° East 323 372 11,700 2,220 Climbing Cleveland Center
08:48PM 40.4928 -79.4875 75° East 388 447 14,200 2,700 Climbing Cleveland Center
08:49PM 40.2816 -79.0809 92° East  Level Estimated
08:49PM 40.4819 -79.3144 95° East 406 467 17,300  Level Cleveland Center
08:50PM 40.4369 -79.1867 115° Southeast 420 483 18,900 1,740 Climbing Cleveland Center
08:51PM 40.3869 -79.0389 114° Southeast 445 512 21,000 960 Climbing Cleveland Center
08:52PM 40.3233 -78.8400 113° Southeast 496 571 21,000  Level Cleveland Center
08:53PM 40.3167 -78.6469 93° East 526 605 21,000  Level Cleveland Center
08:55PM 40.3161 -78.4536 90° East 536 617 21,000  Level Cleveland Center
08:56PM 40.3150 -78.2611 90° East 536 617 21,000  Level Cleveland Center
08:57PM 40.3133 -78.0294 90° East 536 617 21,000  Level Cleveland Center
08:58PM 40.3114 -77.8406 91° East 531 611 21,000  Level Cleveland Center
08:58PM 40.3108 -77.7286 90° East 514 592 21,000 -780 Level New York Center
08:59PM 40.3097 -77.5653 90° East 477 549 19,800 -1,380 Descending New York Center
09:00PM 40.2914 -77.4136 99° East 432 497 18,300 -1,440 Descending New York Center
09:01PM 40.2744 -77.2650 98° East 411 473 17,000 -720 Descending New York Center
09:02PM 40.2572 -77.1247 99° East 396 456 17,000 -60 Level New York Center
09:03PM 40.2394 -76.9872 100° East 391 450 16,900 -720 Descending New York Center
09:04PM 40.2239 -76.8469 98° East 391 450 15,600 -1,500 Descending New York Center
09:05PM 40.2078 -76.7125 99° East 380 437 13,900 -1,320 Descending New York Center
09:06PM 40.1928 -76.5942 99° East 375 432 13,000 -480 Descending New York Center
09:07PM 40.1764 -76.4625 99° East 369 425 13,000  Level New York Center
09:08PM 40.1581 -76.3197 99° East 369 425 13,000  Level New York Center
09:09PM 40.1392 -76.1878 101° East 369 425 13,000 -300 Level New York Center
09:10PM 40.1239 -76.0672 99° East 374 430 12,500 -1,200 Descending New York Center
09:11PM 40.1083 -75.9439 99° East 363 418 10,700 -1,800 Descending New York Center
09:12PM 40.0886 -75.8231 102° East 320 368 8,900 -1,740 Descending New York Center
09:13PM 40.0783 -75.7219 98° East 290 334 7,300 -1,440 Descending New York Center
09:14PM 40.0767 -75.6158 91° East 290 334 6,100 -660 Descending New York Center
09:15PM 40.0725 -75.5097 93° East 290 334 6,000 -120 Descending New York Center
09:16PM 40.0700 -75.4147 92° East 290 334 5,900 -780 Descending New York Center
09:17PM 40.0667 -75.3000 92° East 290 334 4,500 -960 Descending Philadelphia TRACON
09:18PM 40.0500 -75.2000 102° East 284 327 4,000 -360 Descending Philadelphia TRACON
09:19PM 40.0167 -75.1167 118° Southeast 221 254 3,900 -600 Descending Philadelphia TRACON
09:20PM 39.9833 -75.0833 143° Southeast 213 245 3,000 -1,020 Descending Philadelphia TRACON
09:21PM 39.9333 -75.0833 180° South 190 219 2,000 -780 Descending Philadelphia TRACON
09:22PM 39.9000 -75.1333 229° Southwest 141 162 1,400 -600 Descending Philadelphia TRACON
09:23PM 39.8833 -75.1833 247° West 117 135 800 -600 Descending Philadelphia TRACON
09:25PM 39.8667 -75.2333 247° West  Level FlightAware Approximate
09:32PM 39.8722 -75.2409 247° West  Level Estimated